Lock Haven, PA

1:46 AM EDT on September 15, 2014 (GMT -0400)
W3TMB | Change Station
CLOSE
Current Station
Personal Weather Station
Location: Jersey Shore, PA
Elevation: 551 ft
Nearby Weather Stations

Elev 551 ft 41.21 °N, 77.26 °W | Updated 1 minute ago

Mostly Cloudy
Mostly Cloudy
46.4 °F
Feels Like 46 °F
N
0.0
Wind Variable Wind from NE

Today
High -- | Low -- °F
--% Chance of Precip.
Yesterday
High -- | Low -- °F
Precip. -- in
6:50 AM 7:18 PM
Waning Gibbous, 58% visible
Pressure 30.23 in
Visibility 10.0 miles
Clouds Mostly Cloudy 500 ft
Windchill 46 °F
Dew Point 46 °F
Humidity 98%
Rainfall 0.00 in
Snow Depth Not available.
UV 0 out of 12
Pollen 4.00 out of 12
Air Quality Not available.
Flu Activity Not available.
SPECI KIPT 150521Z AUTO 00000KT 10SM BKN005 08/07 A3023 RMK AO2 T00830072

More Conditions Fewer Conditions

Pressure 30.23 in
Visibility 10.0 miles
Clouds Mostly Cloudy 500 ft
Windchill 46 °F
Dew Point 46 °F
Humidity 98%
Rainfall 0.00 in
Snow Depth Not available.
UV 0 out of 12
Pollen 4.00 out of 12
Air Quality Not available.
Flu Activity Not available.
SPECI KIPT 150521Z AUTO 00000KT 10SM BKN005 08/07 A3023 RMK AO2 T00830072

More Conditions Fewer Conditions

10-Day Weather Forecast

Almanac

Astronomy

Sep. 15, 2014 Rise Set
Actual Time 6:50 AM EDT 7:18 PM EDT
Civil Twilight 6:22 AM EDT 7:46 PM EDT
Nautical Twilight 5:49 AM EDT 8:19 PM EDT
Astronomical Twilight 5:16 AM EDT 8:52 PM EDT
Moon 11:56 PM EDT 1:51 PM EDT
Length of Visible Light 13h 24m
Length of Day
12h 28m
Tomorrow will be 2m 43s shorter.
Waning Gibbous, 58% of the Moon is Illuminated
Today
Waning Gibbous
Sep 15
Last Quarter
Sep 24
New
Oct 1
First Quarter
Oct 8
Full

Today's Extremes

State Highs State Lows

Community

WunderPhotos

Upload Photos

1,753,416 photos uploaded!

WunderBlogs® & News

Nearby

Snow Depth

Station Depth Elevation
No new snow has been reported.

Earthquake Activity

City Distance Mag. Time & Date
No recent earthquake activity has been reported nearby.
Minimum magnitude displayed is 2.5.

Coastal Water Temperatures

Place Temperature
No Stations Reporting

Nearby Weather Stations